KLNR

Tri-County Regional Airport

Lone Rock, Wisconsin, USA
METAR KLNR 191156Z AUTO 08003KT 10SM FEW120 02/M02 A2979 RMK AO2 SLP089 T00171017 10022 21022 57021
Observed Flight Rules
Dec-19 @ 11:56 UTC (33 minutes ago) Visual Flight Rules
Wind Visibility Clouds
80° at 3 knots 10 miles
  • Few at 12,000' AGL
Temperatures Readings
Current 2°C / 36°F
Dewpoint -2°C / 28°F
Humidity 75%
Altimeter 29.79" Hg
Pressure 1008.9 hPa
Elevation 217
METAR KLNR 191156Z AUTO 08003KT 10SM FEW120 02/M02 A2979 RMK AO2 SLP089 T00171017 10022 21022 57021
Observed Flight Rules
Dec-19 @ 11:56 UTC
(33 minutes ago)
VFR
Wind Visibility
80° at 3 knots 10 miles
Clouds
  • Few at 12,000' AGL
Temperature Dewpoint
2°C / 36°F -2°C / 28°F
Humidity Altimeter Pressure
75% 29.79" Hg 1008.9 hPa